sensor_id;sensor_type;location;lat;lon;timestamp;temperature;humidity
63013;DHT22;62113;45.624;11.700;2023-08-17T00:01:32;29.40;51.90
63013;DHT22;62113;45.624;11.700;2023-08-17T00:03:58;29.40;52.10
63013;DHT22;62113;45.624;11.700;2023-08-17T00:06:23;29.40;52.40
63013;DHT22;62113;45.624;11.700;2023-08-17T00:08:49;29.40;52.10
63013;DHT22;62113;45.624;11.700;2023-08-17T00:11:14;29.30;52.20
63013;DHT22;62113;45.624;11.700;2023-08-17T00:13:40;29.30;52.20
63013;DHT22;62113;45.624;11.700;2023-08-17T00:16:05;29.30;52.10
63013;DHT22;62113;45.624;11.700;2023-08-17T00:18:31;29.30;52.00
63013;DHT22;62113;45.624;11.700;2023-08-17T00:20:56;29.30;52.20
63013;DHT22;62113;45.624;11.700;2023-08-17T00:23:22;29.30;52.20
63013;DHT22;62113;45.624;11.700;2023-08-17T00:25:47;29.20;52.10
63013;DHT22;62113;45.624;11.700;2023-08-17T00:28:13;29.20;52.20
63013;DHT22;62113;45.624;11.700;2023-08-17T00:30:39;29.20;52.60
63013;DHT22;62113;45.624;11.700;2023-08-17T00:33:05;29.20;52.70
63013;DHT22;62113;45.624;11.700;2023-08-17T00:35:30;29.20;52.90
63013;DHT22;62113;45.624;11.700;2023-08-17T00:37:56;29.10;52.60
63013;DHT22;62113;45.624;11.700;2023-08-17T00:40:21;29.20;53.00
63013;DHT22;62113;45.624;11.700;2023-08-17T00:42:47;29.10;52.50
63013;DHT22;62113;45.624;11.700;2023-08-17T00:45:12;29.10;52.70
63013;DHT22;62113;45.624;11.700;2023-08-17T00:47:38;29.10;52.70
63013;DHT22;62113;45.624;11.700;2023-08-17T00:50:03;29.00;52.80
63013;DHT22;62113;45.624;11.700;2023-08-17T00:52:30;29.00;53.00
63013;DHT22;62113;45.624;11.700;2023-08-17T00:54:56;29.00;52.80
63013;DHT22;62113;45.624;11.700;2023-08-17T00:57:22;29.00;52.90
63013;DHT22;62113;45.624;11.700;2023-08-17T00:59:48;29.00;53.10
63013;DHT22;62113;45.624;11.700;2023-08-17T01:02:13;29.00;53.10
63013;DHT22;62113;45.624;11.700;2023-08-17T01:04:39;28.90;53.20
63013;DHT22;62113;45.624;11.700;2023-08-17T01:07:04;28.90;53.40
63013;DHT22;62113;45.624;11.700;2023-08-17T01:09:30;28.90;53.50
63013;DHT22;62113;45.624;11.700;2023-08-17T01:12:00;28.80;53.40
63013;DHT22;62113;45.624;11.700;2023-08-17T01:14:37;28.80;53.20
63013;DHT22;62113;45.624;11.700;2023-08-17T01:17:06;28.80;53.30
63013;DHT22;62113;45.624;11.700;2023-08-17T01:19:34;28.80;53.40
63013;DHT22;62113;45.624;11.700;2023-08-17T01:22:00;28.80;53.50
63013;DHT22;62113;45.624;11.700;2023-08-17T01:24:27;28.70;53.50
63013;DHT22;62113;45.624;11.700;2023-08-17T01:26:53;28.70;54.00
63013;DHT22;62113;45.624;11.700;2023-08-17T01:29:18;28.70;53.40
63013;DHT22;62113;45.624;11.700;2023-08-17T01:31:50;28.70;53.70
63013;DHT22;62113;45.624;11.700;2023-08-17T01:34:18;28.70;54.20
63013;DHT22;62113;45.624;11.700;2023-08-17T01:36:50;28.70;54.10
63013;DHT22;62113;45.624;11.700;2023-08-17T01:39:17;28.60;55.30
63013;DHT22;62113;45.624;11.700;2023-08-17T01:41:43;28.60;54.40
63013;DHT22;62113;45.624;11.700;2023-08-17T01:44:10;28.50;53.90
63013;DHT22;62113;45.624;11.700;2023-08-17T01:46:36;28.50;54.10
63013;DHT22;62113;45.624;11.700;2023-08-17T01:49:01;28.50;55.10
63013;DHT22;62113;45.624;11.700;2023-08-17T01:51:27;28.40;56.30
63013;DHT22;62113;45.624;11.700;2023-08-17T01:53:53;28.30;54.80
63013;DHT22;62113;45.624;11.700;2023-08-17T01:56:18;28.30;55.00
63013;DHT22;62113;45.624;11.700;2023-08-17T01:58:44;28.30;55.10
63013;DHT22;62113;45.624;11.700;2023-08-17T02:01:09;28.30;55.10
63013;DHT22;62113;45.624;11.700;2023-08-17T02:03:35;28.30;55.30
63013;DHT22;62113;45.624;11.700;2023-08-17T02:06:00;28.30;55.40
63013;DHT22;62113;45.624;11.700;2023-08-17T02:08:26;28.30;55.10
63013;DHT22;62113;45.624;11.700;2023-08-17T02:10:51;28.30;55.30
63013;DHT22;62113;45.624;11.700;2023-08-17T02:13:17;28.30;55.40
63013;DHT22;62113;45.624;11.700;2023-08-17T02:15:43;28.20;55.20
63013;DHT22;62113;45.624;11.700;2023-08-17T02:18:09;28.20;55.50
63013;DHT22;62113;45.624;11.700;2023-08-17T02:20:34;28.20;55.40
63013;DHT22;62113;45.624;11.700;2023-08-17T02:23:00;28.20;55.20
63013;DHT22;62113;45.624;11.700;2023-08-17T02:25:25;28.30;55.40
63013;DHT22;62113;45.624;11.700;2023-08-17T02:27:52;28.20;55.50
63013;DHT22;62113;45.624;11.700;2023-08-17T02:30:17;28.20;55.20
63013;DHT22;62113;45.624;11.700;2023-08-17T02:32:43;28.20;55.30
63013;DHT22;62113;45.624;11.700;2023-08-17T02:35:08;28.20;56.00
63013;DHT22;62113;45.624;11.700;2023-08-17T02:37:34;28.20;55.50
63013;DHT22;62113;45.624;11.700;2023-08-17T02:39:59;28.20;55.40
63013;DHT22;62113;45.624;11.700;2023-08-17T02:42:25;28.20;55.30
63013;DHT22;62113;45.624;11.700;2023-08-17T02:44:50;28.20;55.30
63013;DHT22;62113;45.624;11.700;2023-08-17T02:47:16;28.20;55.50
63013;DHT22;62113;45.624;11.700;2023-08-17T02:49:41;28.20;55.60
63013;DHT22;62113;45.624;11.700;2023-08-17T02:52:07;28.20;55.70
63013;DHT22;62113;45.624;11.700;2023-08-17T02:54:32;28.10;55.90
63013;DHT22;62113;45.624;11.700;2023-08-17T02:56:58;28.10;55.60
63013;DHT22;62113;45.624;11.700;2023-08-17T02:59:24;28.10;55.50
63013;DHT22;62113;45.624;11.700;2023-08-17T03:01:50;28.10;55.50
63013;DHT22;62113;45.624;11.700;2023-08-17T03:04:15;28.10;55.30
63013;DHT22;62113;45.624;11.700;2023-08-17T03:06:40;28.00;55.30
63013;DHT22;62113;45.624;11.700;2023-08-17T03:09:06;28.10;55.20
63013;DHT22;62113;45.624;11.700;2023-08-17T03:11:32;28.00;55.20
63013;DHT22;62113;45.624;11.700;2023-08-17T03:13:57;28.00;55.30
63013;DHT22;62113;45.624;11.700;2023-08-17T03:16:25;28.10;55.30
63013;DHT22;62113;45.624;11.700;2023-08-17T03:18:51;28.10;55.30
63013;DHT22;62113;45.624;11.700;2023-08-17T03:21:17;28.00;55.10
63013;DHT22;62113;45.624;11.700;2023-08-17T03:23:43;28.00;55.40
63013;DHT22;62113;45.624;11.700;2023-08-17T03:26:09;28.00;55.50
63013;DHT22;62113;45.624;11.700;2023-08-17T03:28:35;28.00;55.40
63013;DHT22;62113;45.624;11.700;2023-08-17T03:31:01;28.00;55.30
63013;DHT22;62113;45.624;11.700;2023-08-17T03:33:27;28.00;55.30
63013;DHT22;62113;45.624;11.700;2023-08-17T03:35:52;28.00;55.20
63013;DHT22;62113;45.624;11.700;2023-08-17T03:38:18;28.00;55.10
63013;DHT22;62113;45.624;11.700;2023-08-17T03:40:43;28.00;55.10
63013;DHT22;62113;45.624;11.700;2023-08-17T03:43:09;28.00;55.10
63013;DHT22;62113;45.624;11.700;2023-08-17T03:45:34;28.00;55.10
63013;DHT22;62113;45.624;11.700;2023-08-17T03:48:00;28.00;55.50
63013;DHT22;62113;45.624;11.700;2023-08-17T03:50:26;28.00;55.20
63013;DHT22;62113;45.624;11.700;2023-08-17T03:52:52;27.90;55.30
63013;DHT22;62113;45.624;11.700;2023-08-17T03:55:17;27.90;55.30
63013;DHT22;62113;45.624;11.700;2023-08-17T03:57:43;27.90;55.40
63013;DHT22;62113;45.624;11.700;2023-08-17T04:00:08;27.90;55.80
63013;DHT22;62113;45.624;11.700;2023-08-17T04:02:35;27.90;55.70
63013;DHT22;62113;45.624;11.700;2023-08-17T04:05:00;27.80;55.70
63013;DHT22;62113;45.624;11.700;2023-08-17T04:07:26;27.80;56.80
63013;DHT22;62113;45.624;11.700;2023-08-17T04:09:51;27.80;55.90
63013;DHT22;62113;45.624;11.700;2023-08-17T04:12:17;27.80;55.90
63013;DHT22;62113;45.624;11.700;2023-08-17T04:14:44;27.70;56.50
63013;DHT22;62113;45.624;11.700;2023-08-17T04:17:09;27.70;56.30
63013;DHT22;62113;45.624;11.700;2023-08-17T04:19:35;27.60;56.00
63013;DHT22;62113;45.624;11.700;2023-08-17T04:22:00;27.60;56.40
63013;DHT22;62113;45.624;11.700;2023-08-17T04:24:26;27.60;56.80
63013;DHT22;62113;45.624;11.700;2023-08-17T04:26:51;27.50;56.40
63013;DHT22;62113;45.624;11.700;2023-08-17T04:29:17;27.50;56.50
63013;DHT22;62113;45.624;11.700;2023-08-17T04:31:42;27.40;56.70
63013;DHT22;62113;45.624;11.700;2023-08-17T04:34:08;27.50;56.80
63013;DHT22;62113;45.624;11.700;2023-08-17T04:36:33;27.40;57.30
63013;DHT22;62113;45.624;11.700;2023-08-17T04:38:59;27.50;56.80
63013;DHT22;62113;45.624;11.700;2023-08-17T04:41:24;27.50;56.80
63013;DHT22;62113;45.624;11.700;2023-08-17T04:43:50;27.50;57.10
63013;DHT22;62113;45.624;11.700;2023-08-17T04:46:15;27.60;56.90
63013;DHT22;62113;45.624;11.700;2023-08-17T04:48:41;27.60;57.30
63013;DHT22;62113;45.624;11.700;2023-08-17T04:51:06;27.60;56.90
63013;DHT22;62113;45.624;11.700;2023-08-17T04:53:32;27.60;57.50
63013;DHT22;62113;45.624;11.700;2023-08-17T04:55:58;27.60;57.60
63013;DHT22;62113;45.624;11.700;2023-08-17T04:58:24;27.60;57.20
63013;DHT22;62113;45.624;11.700;2023-08-17T05:00:49;27.70;57.40
63013;DHT22;62113;45.624;11.700;2023-08-17T05:03:15;27.70;56.90
63013;DHT22;62113;45.624;11.700;2023-08-17T05:05:40;27.70;57.00
63013;DHT22;62113;45.624;11.700;2023-08-17T05:08:06;27.70;56.90
63013;DHT22;62113;45.624;11.700;2023-08-17T05:10:31;27.80;57.20
63013;DHT22;62113;45.624;11.700;2023-08-17T05:12:57;27.90;56.80
63013;DHT22;62113;45.624;11.700;2023-08-17T05:15:22;27.90;56.80
63013;DHT22;62113;45.624;11.700;2023-08-17T05:17:48;28.00;56.80
63013;DHT22;62113;45.624;11.700;2023-08-17T05:20:13;28.00;57.20
63013;DHT22;62113;45.624;11.700;2023-08-17T05:22:39;28.10;56.80
63013;DHT22;62113;45.624;11.700;2023-08-17T05:25:04;28.20;56.80
63013;DHT22;62113;45.624;11.700;2023-08-17T05:27:30;28.20;56.90
63013;DHT22;62113;45.624;11.700;2023-08-17T05:29:55;28.30;56.30
63013;DHT22;62113;45.624;11.700;2023-08-17T05:32:21;28.40;56.20
63013;DHT22;62113;45.624;11.700;2023-08-17T05:34:47;28.50;56.00
63013;DHT22;62113;45.624;11.700;2023-08-17T05:37:12;28.60;55.60
63013;DHT22;62113;45.624;11.700;2023-08-17T05:39:38;28.70;55.50
63013;DHT22;62113;45.624;11.700;2023-08-17T05:42:04;28.80;55.30
63013;DHT22;62113;45.624;11.700;2023-08-17T05:44:30;28.80;55.10
63013;DHT22;62113;45.624;11.700;2023-08-17T05:46:55;28.90;54.80
63013;DHT22;62113;45.624;11.700;2023-08-17T05:49:21;29.00;54.60
63013;DHT22;62113;45.624;11.700;2023-08-17T05:51:46;29.20;54.40
63013;DHT22;62113;45.624;11.700;2023-08-17T05:54:12;29.60;54.20
63013;DHT22;62113;45.624;11.700;2023-08-17T05:56:37;30.50;53.90
63013;DHT22;62113;45.624;11.700;2023-08-17T05:59:03;31.70;52.50
63013;DHT22;62113;45.624;11.700;2023-08-17T06:01:28;33.10;50.10
63013;DHT22;62113;45.624;11.700;2023-08-17T06:03:54;34.40;47.80
63013;DHT22;62113;45.624;11.700;2023-08-17T06:06:19;35.70;45.30
63013;DHT22;62113;45.624;11.700;2023-08-17T06:08:45;36.70;42.20
63013;DHT22;62113;45.624;11.700;2023-08-17T06:11:10;37.70;36.90
63013;DHT22;62113;45.624;11.700;2023-08-17T06:13:36;38.60;38.10
63013;DHT22;62113;45.624;11.700;2023-08-17T06:16:02;39.30;36.90
63013;DHT22;62113;45.624;11.700;2023-08-17T06:18:29;40.20;32.40
63013;DHT22;62113;45.624;11.700;2023-08-17T06:20:54;40.80;34.80
63013;DHT22;62113;45.624;11.700;2023-08-17T06:23:20;41.50;34.20
63013;DHT22;62113;45.624;11.700;2023-08-17T06:25:46;42.10;33.20
63013;DHT22;62113;45.624;11.700;2023-08-17T06:28:11;42.60;30.50
63013;DHT22;62113;45.624;11.700;2023-08-17T06:30:37;43.10;31.50
63013;DHT22;62113;45.624;11.700;2023-08-17T06:33:02;43.70;30.80
63013;DHT22;62113;45.624;11.700;2023-08-17T06:35:28;44.20;29.80
63013;DHT22;62113;45.624;11.700;2023-08-17T06:37:53;44.70;29.80
63013;DHT22;62113;45.624;11.700;2023-08-17T06:40:23;45.30;27.80
63013;DHT22;62113;45.624;11.700;2023-08-17T06:42:49;45.80;28.50
63013;DHT22;62113;45.624;11.700;2023-08-17T06:45:14;46.30;27.90
63013;DHT22;62113;45.624;11.700;2023-08-17T06:47:43;46.70;27.40
63013;DHT22;62113;45.624;11.700;2023-08-17T06:50:10;47.20;26.60
63013;DHT22;62113;45.624;11.700;2023-08-17T06:52:36;47.70;25.80
63013;DHT22;62113;45.624;11.700;2023-08-17T06:55:01;48.10;24.50
63013;DHT22;62113;45.624;11.700;2023-08-17T06:57:27;48.60;25.10
63013;DHT22;62113;45.624;11.700;2023-08-17T06:59:54;49.00;23.60
63013;DHT22;62113;45.624;11.700;2023-08-17T07:02:19;49.40;21.70
63013;DHT22;62113;45.624;11.700;2023-08-17T07:04:45;49.70;21.40
63013;DHT22;62113;45.624;11.700;2023-08-17T07:07:12;49.90;22.90
63013;DHT22;62113;45.624;11.700;2023-08-17T07:09:39;50.20;23.60
63013;DHT22;62113;45.624;11.700;2023-08-17T07:12:05;50.40;23.00
63013;DHT22;62113;45.624;11.700;2023-08-17T07:14:30;50.70;22.00
63013;DHT22;62113;45.624;11.700;2023-08-17T07:16:56;51.10;20.70
63013;DHT22;62113;45.624;11.700;2023-08-17T07:19:22;51.30;20.70
63013;DHT22;62113;45.624;11.700;2023-08-17T07:21:47;51.60;21.30
63013;DHT22;62113;45.624;11.700;2023-08-17T07:24:13;51.90;20.70
63013;DHT22;62113;45.624;11.700;2023-08-17T07:26:39;52.30;20.10
63013;DHT22;62113;45.624;11.700;2023-08-17T07:29:05;52.40;21.60
63013;DHT22;62113;45.624;11.700;2023-08-17T07:31:30;52.80;19.00
63013;DHT22;62113;45.624;11.700;2023-08-17T07:33:59;53.20;20.50
63013;DHT22;62113;45.624;11.700;2023-08-17T07:36:24;53.40;18.50
63013;DHT22;62113;45.624;11.700;2023-08-17T07:38:50;53.60;18.20
63013;DHT22;62113;45.624;11.700;2023-08-17T07:41:15;53.80;18.70
63013;DHT22;62113;45.624;11.700;2023-08-17T07:43:41;53.80;18.80
63013;DHT22;62113;45.624;11.700;2023-08-17T07:46:06;53.90;19.50
63013;DHT22;62113;45.624;11.700;2023-08-17T07:48:32;54.00;19.60
63013;DHT22;62113;45.624;11.700;2023-08-17T07:50:58;54.30;18.20
63013;DHT22;62113;45.624;11.700;2023-08-17T07:53:24;54.50;17.40
63013;DHT22;62113;45.624;11.700;2023-08-17T07:55:49;54.50;17.10
63013;DHT22;62113;45.624;11.700;2023-08-17T07:58:15;54.60;18.70
63013;DHT22;62113;45.624;11.700;2023-08-17T08:00:40;54.90;17.20
63013;DHT22;62113;45.624;11.700;2023-08-17T08:03:06;55.10;16.70
63013;DHT22;62113;45.624;11.700;2023-08-17T08:05:32;55.00;17.80
63013;DHT22;62113;45.624;11.700;2023-08-17T08:07:57;54.60;16.50
63013;DHT22;62113;45.624;11.700;2023-08-17T08:10:22;54.40;17.60
63013;DHT22;62113;45.624;11.700;2023-08-17T08:12:48;54.40;17.80
63013;DHT22;62113;45.624;11.700;2023-08-17T08:15:14;54.50;17.40
63013;DHT22;62113;45.624;11.700;2023-08-17T08:17:39;54.80;17.80
63013;DHT22;62113;45.624;11.700;2023-08-17T08:20:05;54.70;17.10
63013;DHT22;62113;45.624;11.700;2023-08-17T08:22:31;54.30;17.50
63013;DHT22;62113;45.624;11.700;2023-08-17T08:24:57;54.20;18.00
63013;DHT22;62113;45.624;11.700;2023-08-17T08:27:23;53.70;18.00
63013;DHT22;62113;45.624;11.700;2023-08-17T08:29:48;53.70;18.00
63013;DHT22;62113;45.624;11.700;2023-08-17T08:32:14;53.70;18.10
63013;DHT22;62113;45.624;11.700;2023-08-17T08:34:40;53.40;18.20
63013;DHT22;62113;45.624;11.700;2023-08-17T08:37:05;53.10;18.10
63013;DHT22;62113;45.624;11.700;2023-08-17T08:39:30;52.60;18.60
63013;DHT22;62113;45.624;11.700;2023-08-17T08:41:56;51.40;19.20
63013;DHT22;62113;45.624;11.700;2023-08-17T08:44:22;50.10;20.00
63013;DHT22;62113;45.624;11.700;2023-08-17T08:46:48;48.30;21.30
63013;DHT22;62113;45.624;11.700;2023-08-17T08:49:13;46.00;23.30
63013;DHT22;62113;45.624;11.700;2023-08-17T08:51:43;44.30;24.70
63013;DHT22;62113;45.624;11.700;2023-08-17T08:54:11;42.90;25.80
63013;DHT22;62113;45.624;11.700;2023-08-17T08:56:38;42.10;27.30
63013;DHT22;62113;45.624;11.700;2023-08-17T08:59:04;41.30;28.70
63013;DHT22;62113;45.624;11.700;2023-08-17T09:01:32;40.70;29.50
63013;DHT22;62113;45.624;11.700;2023-08-17T09:03:58;40.20;30.50
63013;DHT22;62113;45.624;11.700;2023-08-17T09:06:24;39.40;31.00
63013;DHT22;62113;45.624;11.700;2023-08-17T09:08:50;39.20;31.70
63013;DHT22;62113;45.624;11.700;2023-08-17T09:11:16;38.90;32.40
63013;DHT22;62113;45.624;11.700;2023-08-17T09:13:42;38.50;32.50
63013;DHT22;62113;45.624;11.700;2023-08-17T09:16:07;38.30;33.00
63013;DHT22;62113;45.624;11.700;2023-08-17T09:18:33;38.00;32.70
63013;DHT22;62113;45.624;11.700;2023-08-17T09:20:59;37.70;33.40
63013;DHT22;62113;45.624;11.700;2023-08-17T09:23:24;37.30;33.90
63013;DHT22;62113;45.624;11.700;2023-08-17T09:25:50;37.30;34.10
63013;DHT22;62113;45.624;11.700;2023-08-17T09:28:23;37.30;34.30
63013;DHT22;62113;45.624;11.700;2023-08-17T09:30:59;37.40;34.20
63013;DHT22;62113;45.624;11.700;2023-08-17T09:33:25;37.40;34.20
63013;DHT22;62113;45.624;11.700;2023-08-17T09:35:52;37.40;34.10
63013;DHT22;62113;45.624;11.700;2023-08-17T09:38:18;37.20;34.00
63013;DHT22;62113;45.624;11.700;2023-08-17T09:40:44;37.20;34.50
63013;DHT22;62113;45.624;11.700;2023-08-17T09:43:10;37.00;34.70
63013;DHT22;62113;45.624;11.700;2023-08-17T09:45:37;36.90;34.90
63013;DHT22;62113;45.624;11.700;2023-08-17T09:48:03;36.50;35.00
63013;DHT22;62113;45.624;11.700;2023-08-17T09:50:29;36.50;36.00
63013;DHT22;62113;45.624;11.700;2023-08-17T09:52:54;36.60;36.00
63013;DHT22;62113;45.624;11.700;2023-08-17T09:55:21;36.60;36.10
63013;DHT22;62113;45.624;11.700;2023-08-17T09:57:48;36.50;35.70
63013;DHT22;62113;45.624;11.700;2023-08-17T10:00:13;36.50;36.00
63013;DHT22;62113;45.624;11.700;2023-08-17T10:02:39;36.40;36.30
63013;DHT22;62113;45.624;11.700;2023-08-17T10:05:05;36.20;36.00
63013;DHT22;62113;45.624;11.700;2023-08-17T10:07:31;36.10;36.90
63013;DHT22;62113;45.624;11.700;2023-08-17T10:09:59;35.90;37.00
63013;DHT22;62113;45.624;11.700;2023-08-17T10:12:27;35.90;36.70
63013;DHT22;62113;45.624;11.700;2023-08-17T10:14:59;35.70;37.40
63013;DHT22;62113;45.624;11.700;2023-08-17T10:17:26;35.70;36.90
63013;DHT22;62113;45.624;11.700;2023-08-17T10:19:52;35.70;37.20
63013;DHT22;62113;45.624;11.700;2023-08-17T10:24:47;35.50;37.70
63013;DHT22;62113;45.624;11.700;2023-08-17T10:27:14;35.40;37.40
63013;DHT22;62113;45.624;11.700;2023-08-17T10:29:40;35.50;37.50
63013;DHT22;62113;45.624;11.700;2023-08-17T10:32:07;35.70;37.70
63013;DHT22;62113;45.624;11.700;2023-08-17T10:34:33;35.70;37.70
63013;DHT22;62113;45.624;11.700;2023-08-17T10:36:59;35.60;37.40
63013;DHT22;62113;45.624;11.700;2023-08-17T10:39:26;35.60;37.50
63013;DHT22;62113;45.624;11.700;2023-08-17T10:41:52;35.60;38.80
63013;DHT22;62113;45.624;11.700;2023-08-17T10:44:18;35.60;37.20
63013;DHT22;62113;45.624;11.700;2023-08-17T10:46:43;35.60;37.30
63013;DHT22;62113;45.624;11.700;2023-08-17T10:49:26;35.70;37.10
63013;DHT22;62113;45.624;11.700;2023-08-17T10:52:04;35.60;38.10
63013;DHT22;62113;45.624;11.700;2023-08-17T10:54:38;35.30;38.70
63013;DHT22;62113;45.624;11.700;2023-08-17T10:57:24;35.10;38.50
63013;DHT22;62113;45.624;11.700;2023-08-17T11:02:33;34.90;38.90
63013;DHT22;62113;45.624;11.700;2023-08-17T11:04:59;35.00;38.70
63013;DHT22;62113;45.624;11.700;2023-08-17T11:07:25;35.00;38.80
63013;DHT22;62113;45.624;11.700;2023-08-17T11:09:53;35.20;38.70
63013;DHT22;62113;45.624;11.700;2023-08-17T11:12:25;35.20;38.50
63013;DHT22;62113;45.624;11.700;2023-08-17T11:14:51;35.10;38.60
63013;DHT22;62113;45.624;11.700;2023-08-17T11:17:18;35.10;39.10
63013;DHT22;62113;45.624;11.700;2023-08-17T11:19:45;35.10;39.20
63013;DHT22;62113;45.624;11.700;2023-08-17T11:22:11;35.10;38.60
63013;DHT22;62113;45.624;11.700;2023-08-17T11:24:37;35.00;39.00
63013;DHT22;62113;45.624;11.700;2023-08-17T11:27:05;35.00;39.00
63013;DHT22;62113;45.624;11.700;2023-08-17T11:29:31;35.00;38.80
63013;DHT22;62113;45.624;11.700;2023-08-17T11:31:57;35.00;38.60
63013;DHT22;62113;45.624;11.700;2023-08-17T11:34:23;34.80;38.80
63013;DHT22;62113;45.624;11.700;2023-08-17T11:36:48;34.90;38.90
63013;DHT22;62113;45.624;11.700;2023-08-17T11:39:14;34.90;38.70
63013;DHT22;62113;45.624;11.700;2023-08-17T11:41:39;35.10;38.80
63013;DHT22;62113;45.624;11.700;2023-08-17T11:44:05;35.10;38.80
63013;DHT22;62113;45.624;11.700;2023-08-17T11:46:32;35.20;38.90
63013;DHT22;62113;45.624;11.700;2023-08-17T11:49:00;35.20;38.30
63013;DHT22;62113;45.624;11.700;2023-08-17T11:51:30;35.00;38.40
63013;DHT22;62113;45.624;11.700;2023-08-17T11:53:58;34.90;38.70
63013;DHT22;62113;45.624;11.700;2023-08-17T11:56:23;34.90;38.60
63013;DHT22;62113;45.624;11.700;2023-08-17T11:58:49;34.80;39.50
63013;DHT22;62113;45.624;11.700;2023-08-17T12:01:14;34.90;38.40
63013;DHT22;62113;45.624;11.700;2023-08-17T12:03:43;34.90;38.70
63013;DHT22;62113;45.624;11.700;2023-08-17T12:06:09;35.00;39.00
63013;DHT22;62113;45.624;11.700;2023-08-17T12:08:35;34.90;38.80
63013;DHT22;62113;45.624;11.700;2023-08-17T12:11:02;34.80;38.70
63013;DHT22;62113;45.624;11.700;2023-08-17T12:13:33;34.70;39.30
63013;DHT22;62113;45.624;11.700;2023-08-17T12:15:59;34.70;39.40
63013;DHT22;62113;45.624;11.700;2023-08-17T12:18:25;34.70;38.90
63013;DHT22;62113;45.624;11.700;2023-08-17T12:20:53;34.70;38.60
63013;DHT22;62113;45.624;11.700;2023-08-17T12:23:19;34.80;38.90
63013;DHT22;62113;45.624;11.700;2023-08-17T12:25:45;34.80;39.30
63013;DHT22;62113;45.624;11.700;2023-08-17T12:28:13;34.90;39.10
63013;DHT22;62113;45.624;11.700;2023-08-17T12:30:38;34.90;39.10
63013;DHT22;62113;45.624;11.700;2023-08-17T12:33:04;35.00;39.10
63013;DHT22;62113;45.624;11.700;2023-08-17T12:35:30;35.00;38.70
63013;DHT22;62113;45.624;11.700;2023-08-17T12:37:56;34.90;38.80
63013;DHT22;62113;45.624;11.700;2023-08-17T12:40:22;34.50;39.60
63013;DHT22;62113;45.624;11.700;2023-08-17T12:42:47;34.40;39.80
63013;DHT22;62113;45.624;11.700;2023-08-17T12:45:13;34.40;39.80
63013;DHT22;62113;45.624;11.700;2023-08-17T12:47:39;34.50;39.80
63013;DHT22;62113;45.624;11.700;2023-08-17T12:50:04;34.70;39.80
63013;DHT22;62113;45.624;11.700;2023-08-17T12:52:30;34.80;41.30
63013;DHT22;62113;45.624;11.700;2023-08-17T12:54:56;34.90;39.90
63013;DHT22;62113;45.624;11.700;2023-08-17T12:57:21;34.90;39.70
63013;DHT22;62113;45.624;11.700;2023-08-17T12:59:47;35.00;39.60
63013;DHT22;62113;45.624;11.700;2023-08-17T13:02:12;35.00;39.30
63013;DHT22;62113;45.624;11.700;2023-08-17T13:04:38;35.00;39.30
63013;DHT22;62113;45.624;11.700;2023-08-17T13:07:03;35.00;39.30
63013;DHT22;62113;45.624;11.700;2023-08-17T13:09:29;35.00;38.90
63013;DHT22;62113;45.624;11.700;2023-08-17T13:11:54;35.10;39.50
63013;DHT22;62113;45.624;11.700;2023-08-17T13:14:20;35.10;39.40
63013;DHT22;62113;45.624;11.700;2023-08-17T13:16:45;35.10;39.40
63013;DHT22;62113;45.624;11.700;2023-08-17T13:19:11;35.10;39.30
63013;DHT22;62113;45.624;11.700;2023-08-17T13:21:36;35.20;39.30
63013;DHT22;62113;45.624;11.700;2023-08-17T13:24:02;35.20;39.00
63013;DHT22;62113;45.624;11.700;2023-08-17T13:26:28;35.20;39.00
63013;DHT22;62113;45.624;11.700;2023-08-17T13:28:54;35.20;38.90
63013;DHT22;62113;45.624;11.700;2023-08-17T13:31:19;35.10;39.00
63013;DHT22;62113;45.624;11.700;2023-08-17T13:33:45;35.20;39.30
63013;DHT22;62113;45.624;11.700;2023-08-17T13:36:10;35.20;39.50
63013;DHT22;62113;45.624;11.700;2023-08-17T13:38:36;35.20;39.60
63013;DHT22;62113;45.624;11.700;2023-08-17T13:41:02;35.20;38.90
63013;DHT22;62113;45.624;11.700;2023-08-17T13:43:28;35.10;39.10
63013;DHT22;62113;45.624;11.700;2023-08-17T13:45:53;35.10;38.60
63013;DHT22;62113;45.624;11.700;2023-08-17T13:48:19;35.10;38.90
63013;DHT22;62113;45.624;11.700;2023-08-17T13:50:44;35.00;40.10
63013;DHT22;62113;45.624;11.700;2023-08-17T13:53:10;35.00;39.60
63013;DHT22;62113;45.624;11.700;2023-08-17T13:55:35;34.90;40.00
63013;DHT22;62113;45.624;11.700;2023-08-17T13:58:01;34.70;39.30
63013;DHT22;62113;45.624;11.700;2023-08-17T14:00:27;34.60;39.80
63013;DHT22;62113;45.624;11.700;2023-08-17T14:02:53;34.50;39.90
63013;DHT22;62113;45.624;11.700;2023-08-17T14:05:18;34.30;41.10
63013;DHT22;62113;45.624;11.700;2023-08-17T14:07:44;34.30;41.20
63013;DHT22;62113;45.624;11.700;2023-08-17T14:10:09;34.10;41.40
63013;DHT22;62113;45.624;11.700;2023-08-17T14:12:35;34.00;42.20
63013;DHT22;62113;45.624;11.700;2023-08-17T14:15:00;34.00;42.50
63013;DHT22;62113;45.624;11.700;2023-08-17T14:17:26;33.90;41.50
63013;DHT22;62113;45.624;11.700;2023-08-17T14:19:51;34.00;41.40
63013;DHT22;62113;45.624;11.700;2023-08-17T14:22:17;34.10;41.20
63013;DHT22;62113;45.624;11.700;2023-08-17T14:24:42;34.20;41.10
63013;DHT22;62113;45.624;11.700;2023-08-17T14:27:08;34.20;41.20
63013;DHT22;62113;45.624;11.700;2023-08-17T14:29:33;34.30;41.00
63013;DHT22;62113;45.624;11.700;2023-08-17T14:31:59;34.40;41.00
63013;DHT22;62113;45.624;11.700;2023-08-17T14:34:24;34.40;41.10
63013;DHT22;62113;45.624;11.700;2023-08-17T14:36:50;34.40;41.50
63013;DHT22;62113;45.624;11.700;2023-08-17T14:39:15;34.50;41.10
63013;DHT22;62113;45.624;11.700;2023-08-17T14:41:41;34.40;41.20
63013;DHT22;62113;45.624;11.700;2023-08-17T14:44:06;34.50;41.10
63013;DHT22;62113;45.624;11.700;2023-08-17T14:46:32;34.50;41.00
63013;DHT22;62113;45.624;11.700;2023-08-17T14:48:57;34.50;41.20
63013;DHT22;62113;45.624;11.700;2023-08-17T14:51:23;34.50;41.40
63013;DHT22;62113;45.624;11.700;2023-08-17T14:53:49;34.50;41.20
63013;DHT22;62113;45.624;11.700;2023-08-17T14:56:15;34.50;41.80
63013;DHT22;62113;45.624;11.700;2023-08-17T14:58:40;34.40;42.50
63013;DHT22;62113;45.624;11.700;2023-08-17T15:01:06;34.30;42.50
63013;DHT22;62113;45.624;11.700;2023-08-17T15:03:31;34.20;42.50
63013;DHT22;62113;45.624;11.700;2023-08-17T15:05:57;34.20;42.20
63013;DHT22;62113;45.624;11.700;2023-08-17T15:08:22;34.10;42.20
63013;DHT22;62113;45.624;11.700;2023-08-17T15:10:48;34.10;42.30
63013;DHT22;62113;45.624;11.700;2023-08-17T15:13:14;34.10;42.10